createdAt,value
2018-02-25T00:00:01.769Z,-1.97
2018-02-25T00:01:01.775Z,-1.99
2018-02-25T00:02:01.816Z,-1.96
2018-02-25T00:03:01.822Z,-1.99
2018-02-25T00:04:01.836Z,-2.00
2018-02-25T00:05:01.844Z,-1.99
2018-02-25T00:06:01.864Z,-2.04
2018-02-25T00:07:01.877Z,-1.97
2018-02-25T00:08:01.923Z,-1.96
2018-02-25T00:09:01.942Z,-1.99
2018-02-25T00:10:01.942Z,-1.99
2018-02-25T00:11:01.977Z,-2.00
2018-02-25T00:12:01.974Z,-2.00
2018-02-25T00:13:02.071Z,-2.00
2018-02-25T00:14:01.995Z,-2.00
2018-02-25T00:15:02.017Z,-1.96
2018-02-25T00:16:02.021Z,-2.04
2018-02-25T00:17:02.033Z,-1.94
2018-02-25T00:18:02.064Z,-1.97
2018-02-25T00:19:02.071Z,-1.94
2018-02-25T00:20:02.090Z,-1.99
2018-02-25T00:21:02.111Z,-1.97
2018-02-25T00:22:02.123Z,-1.97
2018-02-25T00:23:02.132Z,-1.99
2018-02-25T00:24:02.172Z,-1.97
2018-02-25T00:25:02.174Z,-2.00
2018-02-25T00:26:02.282Z,-1.99
2018-02-25T00:27:02.399Z,-1.96
2018-02-25T00:28:02.246Z,-2.00
2018-02-25T00:29:02.244Z,-1.99
2018-02-25T00:30:02.253Z,-1.96
2018-02-25T00:31:02.281Z,-1.94
2018-02-25T00:32:02.283Z,-2.00
2018-02-25T00:33:02.296Z,-1.99
2018-02-25T00:34:02.311Z,-1.97
2018-02-25T00:35:02.331Z,-1.99
2018-02-25T00:36:02.350Z,-2.04
2018-02-25T00:37:02.363Z,-2.02
2018-02-25T00:38:02.378Z,-1.97
2018-02-25T00:39:02.408Z,-2.11
2018-02-25T00:40:02.432Z,-1.99
2018-02-25T00:41:02.427Z,-1.97
2018-02-25T00:42:02.464Z,-2.14
2018-02-25T00:43:02.473Z,-2.05
2018-02-25T00:44:02.479Z,-2.17
2018-02-25T00:45:02.490Z,-2.10
2018-02-25T00:46:02.524Z,-2.07
2018-02-25T00:47:02.578Z,-2.08
2018-02-25T00:48:02.542Z,-2.04
2018-02-25T00:49:02.558Z,-2.10
2018-02-25T00:50:02.587Z,-2.05
2018-02-25T00:51:02.605Z,-2.10
2018-02-25T00:52:02.611Z,-2.13
2018-02-25T00:53:02.639Z,-2.10
2018-02-25T00:54:02.652Z,-2.14
2018-02-25T00:55:02.660Z,-2.10
2018-02-25T00:56:02.672Z,-2.15
2018-02-25T00:57:02.705Z,-2.13
2018-02-25T00:58:02.719Z,-2.18
2018-02-25T00:59:02.726Z,-2.14
2018-02-25T01:00:02.793Z,-2.18
2018-02-25T01:01:02.747Z,-2.18
2018-02-25T01:02:02.780Z,-2.22
2018-02-25T01:03:02.784Z,-2.15
2018-02-25T01:04:02.801Z,-2.15
2018-02-25T01:05:02.826Z,-2.07
2018-02-25T01:06:02.850Z,-2.11
2018-02-25T01:07:02.888Z,-2.10
2018-02-25T01:08:02.866Z,-2.04
2018-02-25T01:09:02.882Z,-2.00
2018-02-25T01:10:02.904Z,-2.08
2018-02-25T01:11:02.912Z,-2.13
2018-02-25T01:12:02.928Z,-2.07
2018-02-25T01:13:02.956Z,-2.15
2018-02-25T01:14:02.970Z,-2.11
2018-02-25T01:15:03.007Z,-2.17
2018-02-25T01:16:02.998Z,-2.07
2018-02-25T01:17:03.020Z,-2.08
2018-02-25T01:18:03.035Z,-2.15
2018-02-25T01:19:03.045Z,-2.22
2018-02-25T01:20:03.081Z,-2.22
2018-02-25T01:21:03.086Z,-2.20
2018-02-25T01:22:03.099Z,-2.17
2018-02-25T01:23:03.110Z,-2.20
2018-02-25T01:24:03.138Z,-2.25
2018-02-25T01:25:03.146Z,-2.23
2018-02-25T01:26:03.172Z,-2.20
2018-02-25T01:27:03.180Z,-2.26
2018-02-25T01:28:03.210Z,-2.36
2018-02-25T01:29:03.212Z,-2.33
2018-02-25T01:30:03.228Z,-2.32
2018-02-25T01:31:03.248Z,-2.39
2018-02-25T01:32:03.260Z,-2.36
2018-02-25T01:33:03.275Z,-2.33
2018-02-25T01:34:03.290Z,-2.25
2018-02-25T01:35:03.329Z,-2.39
2018-02-25T01:36:03.329Z,-2.33
2018-02-25T01:37:03.335Z,-2.23
2018-02-25T01:38:03.358Z,-2.28
2018-02-25T01:39:03.371Z,-2.25
2018-02-25T01:40:03.395Z,-2.23
2018-02-25T01:41:03.405Z,-2.20
2018-02-25T01:42:03.440Z,-2.28
2018-02-25T01:43:03.461Z,-2.23
2018-02-25T01:44:03.452Z,-2.34
2018-02-25T01:45:03.483Z,-2.32
2018-02-25T01:46:03.482Z,-2.23
2018-02-25T01:47:03.529Z,-2.26
2018-02-25T01:48:03.514Z,-2.22
2018-02-25T01:49:03.543Z,-2.28
2018-02-25T01:50:03.573Z,-2.33
2018-02-25T01:51:03.579Z,-2.36
2018-02-25T01:52:03.594Z,-2.28
2018-02-25T01:53:03.627Z,-2.32
2018-02-25T01:54:03.624Z,-2.32
2018-02-25T01:55:03.634Z,-2.32
2018-02-25T01:56:03.665Z,-2.29
2018-02-25T01:57:03.661Z,-2.29
2018-02-25T01:58:03.700Z,-2.32
2018-02-25T01:59:03.710Z,-2.36
2018-02-25T02:00:03.714Z,-2.32
2018-02-25T02:01:03.729Z,-2.28
2018-02-25T02:02:03.747Z,-2.34
2018-02-25T02:03:03.889Z,-2.37
2018-02-25T02:04:03.772Z,-2.29
2018-02-25T02:05:03.821Z,-2.28
2018-02-25T02:06:03.874Z,-2.25
2018-02-25T02:07:03.872Z,-2.32
2018-02-25T02:08:03.836Z,-2.29
2018-02-25T02:09:03.887Z,-2.34
2018-02-25T02:10:03.891Z,-2.37
2018-02-25T02:11:03.898Z,-2.33
2018-02-25T02:12:03.934Z,-2.45
2018-02-25T02:13:03.942Z,-2.50
2018-02-25T02:14:03.952Z,-2.34
2018-02-25T02:15:03.951Z,-2.42
2018-02-25T02:16:03.995Z,-2.45
2018-02-25T02:17:03.997Z,-2.40
2018-02-25T02:18:04.811Z,-2.36
2018-02-25T02:19:04.017Z,-2.42
2018-02-25T02:20:04.055Z,-2.39
2018-02-25T02:21:04.066Z,-2.44
2018-02-25T02:22:04.068Z,-2.39
2018-02-25T02:23:04.108Z,-2.45
2018-02-25T02:24:04.100Z,-2.44
2018-02-25T02:25:04.137Z,-2.47
2018-02-25T02:26:04.132Z,-2.45
2018-02-25T02:27:04.188Z,-2.57
2018-02-25T02:28:04.179Z,-2.52
2018-02-25T02:29:04.188Z,-2.57
2018-02-25T02:30:04.226Z,-2.45
2018-02-25T02:31:04.231Z,-2.39
2018-02-25T02:32:04.246Z,-2.37
2018-02-25T02:33:04.260Z,-2.48
2018-02-25T02:34:04.260Z,-2.51
2018-02-25T02:35:04.294Z,-2.55
2018-02-25T02:36:04.301Z,-2.51
2018-02-25T02:37:04.322Z,-2.68
2018-02-25T02:38:04.322Z,-2.61
2018-02-25T02:39:04.354Z,-2.61
2018-02-25T02:40:04.363Z,-2.57
2018-02-25T02:41:04.368Z,-2.57
2018-02-25T02:42:04.385Z,-2.55
2018-02-25T02:43:04.404Z,-2.69
2018-02-25T02:44:04.437Z,-2.68
2018-02-25T02:45:04.435Z,-2.72
2018-02-25T02:46:04.472Z,-2.62
2018-02-25T02:47:04.474Z,-2.70
2018-02-25T02:48:04.491Z,-2.70
2018-02-25T02:49:04.498Z,-2.68
2018-02-25T02:50:04.527Z,-2.62
2018-02-25T02:51:04.545Z,-2.65
2018-02-25T02:52:04.554Z,-2.68
2018-02-25T02:53:04.567Z,-2.66
2018-02-25T02:54:04.606Z,-2.72
2018-02-25T02:55:04.606Z,-2.70
2018-02-25T02:56:04.619Z,-2.69
2018-02-25T02:57:04.649Z,-2.63
2018-02-25T02:58:04.651Z,-2.63
2018-02-25T02:59:04.655Z,-2.68
2018-02-25T03:00:04.677Z,-2.69
2018-02-25T03:01:04.721Z,-2.62
2018-02-25T03:02:04.726Z,-2.63
2018-02-25T03:03:04.735Z,-2.66
2018-02-25T03:04:04.741Z,-2.63
2018-02-25T03:05:04.751Z,-2.78
2018-02-25T03:06:04.799Z,-2.81
2018-02-25T03:07:04.811Z,-2.72
2018-02-25T03:08:04.806Z,-2.75
2018-02-25T03:09:04.828Z,-2.72
2018-02-25T03:10:04.830Z,-2.68
2018-02-25T03:11:04.851Z,-2.75
2018-02-25T03:12:04.864Z,-2.69
2018-02-25T03:13:04.906Z,-2.78
2018-02-25T03:14:04.950Z,-2.76
2018-02-25T03:15:04.912Z,-2.72
2018-02-25T03:16:04.924Z,-2.81
2018-02-25T03:17:04.955Z,-2.75
2018-02-25T03:18:04.985Z,-2.72
2018-02-25T03:19:04.998Z,-2.75
2018-02-25T03:20:05.005Z,-2.83
2018-02-25T03:21:05.017Z,-2.72
2018-02-25T03:22:07.013Z,-2.81
2018-02-25T03:23:05.068Z,-2.84
2018-02-25T03:24:05.081Z,-2.83
2018-02-25T03:25:05.069Z,-2.81
2018-02-25T03:26:05.102Z,-2.78
2018-02-25T03:27:05.100Z,-2.81
2018-02-25T03:28:05.125Z,-2.78
2018-02-25T03:29:05.150Z,-2.84
2018-02-25T03:30:05.156Z,-2.75
2018-02-25T03:31:05.181Z,-2.81
2018-02-25T03:32:05.186Z,-2.81
2018-02-25T03:33:05.201Z,-2.91
2018-02-25T03:34:05.216Z,-2.87
2018-02-25T03:35:05.269Z,-2.86
2018-02-25T03:36:05.271Z,-2.91
2018-02-25T03:37:05.275Z,-2.99
2018-02-25T03:38:05.285Z,-2.93
2018-02-25T03:39:05.304Z,-2.89
2018-02-25T03:40:05.315Z,-2.90
2018-02-25T03:41:05.336Z,-2.96
2018-02-25T03:42:05.351Z,-2.90
2018-02-25T03:43:05.368Z,-2.93
2018-02-25T03:44:05.384Z,-2.91
2018-02-25T03:45:05.391Z,-2.91
2018-02-25T03:46:05.404Z,-2.91
2018-02-25T03:47:05.443Z,-2.96
2018-02-25T03:48:05.436Z,-2.99
2018-02-25T03:49:05.450Z,-2.98
2018-02-25T03:50:05.467Z,-2.93
2018-02-25T03:51:05.486Z,-2.98
2018-02-25T03:52:05.512Z,-3.02
2018-02-25T03:53:05.521Z,-2.99
2018-02-25T03:54:05.527Z,-2.89
2018-02-25T03:55:05.653Z,-2.99
2018-02-25T03:56:05.573Z,-3.02
2018-02-25T03:57:05.581Z,-3.02
2018-02-25T03:58:05.592Z,-3.02
2018-02-25T03:59:05.612Z,-2.98
2018-02-25T04:00:05.642Z,-3.01
2018-02-25T04:01:05.654Z,-3.07
2018-02-25T04:02:05.664Z,-3.07
2018-02-25T04:03:05.669Z,-2.94
2018-02-25T04:04:05.691Z,-3.08
2018-02-25T04:05:05.710Z,-3.11
2018-02-25T04:06:05.723Z,-2.99
2018-02-25T04:07:05.748Z,-3.04
2018-02-25T04:08:05.843Z,-3.01
2018-02-25T04:09:05.790Z,-2.98
2018-02-25T04:10:05.790Z,-3.15
2018-02-25T04:11:05.800Z,-3.04
2018-02-25T04:12:05.831Z,-3.01
2018-02-25T04:13:05.838Z,-3.02
2018-02-25T04:14:05.848Z,-3.12
2018-02-25T04:15:05.871Z,-3.02
2018-02-25T04:16:05.883Z,-3.17
2018-02-25T04:17:05.895Z,-3.11
2018-02-25T04:18:05.915Z,-3.11
2018-02-25T04:19:05.932Z,-3.11
2018-02-25T04:20:05.950Z,-3.11
2018-02-25T04:21:05.958Z,-3.19
2018-02-25T04:22:05.968Z,-3.14
2018-02-25T04:23:06.104Z,-3.19
2018-02-25T04:24:06.002Z,-3.22
2018-02-25T04:25:06.033Z,-3.14
2018-02-25T04:26:06.032Z,-3.23
2018-02-25T04:27:06.061Z,-3.19
2018-02-25T04:28:06.073Z,-3.15
2018-02-25T04:29:06.084Z,-3.14
2018-02-25T04:30:06.098Z,-3.22
2018-02-25T04:31:06.116Z,-3.20
2018-02-25T04:32:06.137Z,-3.22
2018-02-25T04:33:06.147Z,-3.12
2018-02-25T04:34:06.184Z,-3.22
2018-02-25T04:35:06.175Z,-3.25
2018-02-25T04:36:06.196Z,-3.20
2018-02-25T04:37:06.217Z,-3.14
2018-02-25T04:38:06.285Z,-3.20
2018-02-25T04:39:06.300Z,-3.09
2018-02-25T04:40:06.303Z,-3.15
2018-02-25T04:41:06.277Z,-3.11
2018-02-25T04:42:06.312Z,-3.09
2018-02-25T04:43:06.306Z,-3.25
2018-02-25T04:44:06.320Z,-3.14
2018-02-25T04:45:06.344Z,-3.19
2018-02-25T04:46:06.347Z,-3.19
2018-02-25T04:47:06.370Z,-3.19
2018-02-25T04:48:06.376Z,-3.26
2018-02-25T04:49:06.400Z,-3.36
2018-02-25T04:50:06.419Z,-3.36
2018-02-25T04:51:06.443Z,-3.38
2018-02-25T04:52:06.452Z,-3.33
2018-02-25T04:53:06.460Z,-3.33
2018-02-25T04:54:06.481Z,-3.30
2018-02-25T04:55:06.489Z,-3.33
2018-02-25T04:56:06.507Z,-3.36
2018-02-25T04:57:06.513Z,-3.38
2018-02-25T04:58:06.527Z,-3.37
2018-02-25T04:59:06.551Z,-3.38
2018-02-25T05:00:06.565Z,-3.37
2018-02-25T05:01:06.613Z,-3.33
2018-02-25T05:02:06.603Z,-3.37
2018-02-25T05:03:06.622Z,-3.33
2018-02-25T05:04:06.627Z,-3.38
2018-02-25T05:05:06.646Z,-3.33
2018-02-25T05:06:06.658Z,-3.36
2018-02-25T05:07:06.685Z,-3.33
2018-02-25T05:08:06.691Z,-3.43
2018-02-25T05:09:06.708Z,-3.26
2018-02-25T05:10:06.727Z,-3.29
2018-02-25T05:11:06.754Z,-3.38
2018-02-25T05:12:06.783Z,-3.33
2018-02-25T05:13:06.796Z,-3.33
2018-02-25T05:14:06.807Z,-3.36
2018-02-25T05:15:06.796Z,-3.37
2018-02-25T05:16:06.832Z,-3.32
2018-02-25T05:17:06.856Z,-3.33
2018-02-25T05:18:06.846Z,-3.33
2018-02-25T05:19:06.864Z,-3.37
2018-02-25T05:20:06.894Z,-3.32
2018-02-25T05:21:06.888Z,-3.43
2018-02-25T05:22:06.908Z,-3.43
2018-02-25T05:23:06.931Z,-3.36
2018-02-25T05:24:06.940Z,-3.33
2018-02-25T05:25:06.960Z,-3.33
2018-02-25T05:26:06.974Z,-3.36
2018-02-25T05:27:06.991Z,-3.33
2018-02-25T05:28:07.004Z,-3.33
2018-02-25T05:29:07.065Z,-3.33
2018-02-25T05:30:07.038Z,-3.43
2018-02-25T05:31:07.077Z,-3.36
2018-02-25T05:32:07.094Z,-3.30
2018-02-25T05:33:07.078Z,-3.33
2018-02-25T05:34:07.097Z,-3.46
2018-02-25T05:35:07.119Z,-3.32
2018-02-25T05:36:07.128Z,-3.38
2018-02-25T05:37:07.154Z,-3.41
2018-02-25T05:38:07.172Z,-3.46
2018-02-25T05:39:07.173Z,-3.43
2018-02-25T05:40:07.189Z,-3.44
2018-02-25T05:41:07.211Z,-3.48
2018-02-25T05:42:07.225Z,-3.56
2018-02-25T05:43:07.228Z,-3.55
2018-02-25T05:44:07.266Z,-3.53
2018-02-25T05:45:07.265Z,-3.44
2018-02-25T05:46:07.283Z,-3.48
2018-02-25T05:47:07.297Z,-3.55
2018-02-25T05:49:07.333Z,-3.55
2018-02-25T05:50:07.342Z,-3.55
2018-02-25T05:51:07.384Z,-3.51
2018-02-25T05:52:07.373Z,-3.51
2018-02-25T05:53:07.388Z,-3.55
2018-02-25T05:54:07.406Z,-3.62
2018-02-25T05:55:07.442Z,-3.55
2018-02-25T05:56:07.450Z,-3.59
2018-02-25T05:57:07.452Z,-3.66
2018-02-25T05:58:07.463Z,-3.64
2018-02-25T05:59:07.485Z,-3.64
2018-02-25T06:00:07.512Z,-3.64
2018-02-25T06:01:07.540Z,-3.61
2018-02-25T06:02:07.639Z,-3.62
2018-02-25T06:03:07.550Z,-3.56
2018-02-25T06:04:07.555Z,-3.59
2018-02-25T06:05:07.578Z,-3.68
2018-02-25T06:06:07.594Z,-3.62
2018-02-25T06:07:07.610Z,-3.58
2018-02-25T06:08:07.620Z,-3.58
2018-02-25T06:09:07.635Z,-3.66
2018-02-25T06:10:07.650Z,-3.69
2018-02-25T06:11:07.670Z,-3.61
2018-02-25T06:12:09.699Z,-3.64
2018-02-25T06:13:07.708Z,-3.69
2018-02-25T06:14:07.721Z,-3.64
2018-02-25T06:15:08.288Z,-3.65
2018-02-25T06:16:07.746Z,-3.75
2018-02-25T06:17:07.760Z,-3.65
2018-02-25T06:18:07.782Z,-3.64
2018-02-25T06:19:07.864Z,-3.65
2018-02-25T06:20:07.800Z,-3.64
2018-02-25T06:21:07.832Z,-3.64
2018-02-25T06:22:07.858Z,-3.74
2018-02-25T06:23:07.854Z,-3.59
2018-02-25T06:24:07.886Z,-3.58
2018-02-25T06:25:07.909Z,-3.58
2018-02-25T06:26:07.902Z,-3.56
2018-02-25T06:27:07.917Z,-3.64
2018-02-25T06:28:07.941Z,-3.59
2018-02-25T06:29:07.960Z,-3.77
2018-02-25T06:30:08.106Z,-3.74
2018-02-25T06:31:07.977Z,-3.68
2018-02-25T06:32:08.011Z,-3.61
2018-02-25T06:33:08.020Z,-3.62
2018-02-25T06:34:08.023Z,-3.66
2018-02-25T06:35:08.048Z,-3.61
2018-02-25T06:36:08.122Z,-3.65
2018-02-25T06:37:08.093Z,-3.59
2018-02-25T06:38:08.104Z,-3.65
2018-02-25T06:39:08.099Z,-3.68
2018-02-25T06:40:08.107Z,-3.66
2018-02-25T06:41:08.139Z,-3.59
2018-02-25T06:42:08.140Z,-3.59
2018-02-25T06:43:08.158Z,-3.58
2018-02-25T06:44:08.168Z,-3.58
2018-02-25T06:45:08.200Z,-3.61
2018-02-25T06:46:08.214Z,-3.55
2018-02-25T06:47:08.287Z,-3.48
2018-02-25T06:48:08.251Z,-3.59
2018-02-25T06:49:08.245Z,-3.51
2018-02-25T06:50:08.277Z,-3.51
2018-02-25T06:51:08.287Z,-3.55
2018-02-25T06:52:08.406Z,-3.61
2018-02-25T06:53:08.329Z,-3.61
2018-02-25T06:54:08.322Z,-3.51
2018-02-25T06:55:08.339Z,-3.51
2018-02-25T06:56:08.361Z,-3.56
2018-02-25T06:57:08.396Z,-3.47
2018-02-25T06:58:09.278Z,-3.62
2018-02-25T06:59:08.413Z,-3.68
2018-02-25T07:00:08.443Z,-3.51
2018-02-25T07:01:08.447Z,-3.61
2018-02-25T07:02:08.493Z,-3.56
2018-02-25T07:03:08.478Z,-3.59
2018-02-25T07:04:08.497Z,-3.62
2018-02-25T07:05:08.514Z,-3.62
2018-02-25T07:06:08.518Z,-3.69
2018-02-25T07:07:08.531Z,-3.64
2018-02-25T07:08:08.539Z,-3.62
2018-02-25T07:09:08.561Z,-3.51
2018-02-25T07:10:08.574Z,-3.51
2018-02-25T07:11:08.592Z,-3.47
2018-02-25T07:12:08.599Z,-3.55
2018-02-25T07:13:08.629Z,-3.48
2018-02-25T07:14:08.639Z,-3.40
2018-02-25T07:15:08.707Z,-3.48
2018-02-25T07:16:08.673Z,-3.44
2018-02-25T07:17:08.680Z,-3.43
2018-02-25T07:18:08.714Z,-3.44
2018-02-25T07:19:08.722Z,-3.46
2018-02-25T07:20:08.739Z,-3.50
2018-02-25T07:21:08.764Z,-3.44
2018-02-25T07:22:08.823Z,-3.44
2018-02-25T07:23:08.778Z,-3.38
2018-02-25T07:24:08.794Z,-3.50
2018-02-25T07:25:08.815Z,-3.46
2018-02-25T07:26:08.819Z,-3.43
2018-02-25T07:27:08.837Z,-3.47
2018-02-25T07:28:08.853Z,-3.55
2018-02-25T07:29:08.866Z,-3.40
2018-02-25T07:30:08.886Z,-3.37
2018-02-25T07:31:08.901Z,-3.33
2018-02-25T07:32:08.914Z,-3.41
2018-02-25T07:33:08.947Z,-3.36
2018-02-25T07:34:08.947Z,-3.26
2018-02-25T07:35:08.968Z,-3.26
2018-02-25T07:36:08.973Z,-3.27
2018-02-25T07:37:08.984Z,-3.29
2018-02-25T07:38:09.007Z,-3.22
2018-02-25T07:39:09.017Z,-3.17
2018-02-25T07:40:09.040Z,-3.22
2018-02-25T07:41:09.069Z,-3.17
2018-02-25T07:42:09.084Z,-3.19
2018-02-25T07:43:09.088Z,-3.20
2018-02-25T07:44:09.103Z,-3.19
2018-02-25T07:45:09.116Z,-3.23
2018-02-25T07:46:09.131Z,-3.22
2018-02-25T07:47:09.167Z,-3.15
2018-02-25T07:48:09.161Z,-3.04
2018-02-25T07:49:09.172Z,-3.17
2018-02-25T07:50:09.197Z,-3.08
2018-02-25T07:51:09.206Z,-2.98
2018-02-25T07:52:09.226Z,-3.07
2018-02-25T07:53:09.243Z,-3.04
2018-02-25T07:54:09.274Z,-2.99
2018-02-25T07:55:09.272Z,-2.99
2018-02-25T07:56:09.279Z,-2.94
2018-02-25T07:57:09.295Z,-2.98
2018-02-25T07:58:09.320Z,-3.01
2018-02-25T07:59:09.333Z,-2.96
2018-02-25T08:00:09.347Z,-2.96
2018-02-25T08:01:09.357Z,-2.96
2018-02-25T08:02:09.375Z,-2.90
2018-02-25T08:03:09.396Z,-2.83
2018-02-25T08:04:12.336Z,-2.89
2018-02-25T08:05:09.448Z,-2.89
2018-02-25T08:06:09.469Z,-2.89
2018-02-25T08:07:09.481Z,-2.86
2018-02-25T08:08:09.493Z,-2.93
2018-02-25T08:09:09.494Z,-2.90
2018-02-25T08:10:09.518Z,-2.81
2018-02-25T08:11:09.548Z,-2.81
2018-02-25T08:12:09.560Z,-2.78
2018-02-25T08:13:09.558Z,-2.69
2018-02-25T08:14:09.566Z,-2.69
2018-02-25T08:15:09.620Z,-2.75
2018-02-25T08:16:09.614Z,-2.62
2018-02-25T08:17:09.616Z,-2.66
2018-02-25T08:18:09.640Z,-2.62
2018-02-25T08:19:09.679Z,-2.62
2018-02-25T08:20:09.671Z,-2.75
2018-02-25T08:21:09.672Z,-2.72
2018-02-25T08:22:09.693Z,-2.69
2018-02-25T08:23:09.738Z,-2.52
2018-02-25T08:24:09.727Z,-2.61
2018-02-25T08:25:09.737Z,-2.57
2018-02-25T08:26:09.754Z,-2.58
2018-02-25T08:27:09.769Z,-2.69
2018-02-25T08:28:09.811Z,-2.66
2018-02-25T08:29:09.822Z,-2.72
2018-02-25T08:30:09.824Z,-2.68
2018-02-25T08:31:09.846Z,-2.58
2018-02-25T08:32:09.856Z,-2.68
2018-02-25T08:33:09.869Z,-2.61
2018-02-25T08:34:09.882Z,-2.63
2018-02-25T08:35:09.900Z,-2.58
2018-02-25T08:36:09.936Z,-2.62
2018-02-25T08:37:09.936Z,-2.57
2018-02-25T08:38:09.943Z,-2.48
2018-02-25T08:39:09.999Z,-2.48
2018-02-25T08:40:10.037Z,-2.55
2018-02-25T08:41:10.004Z,-2.45
2018-02-25T08:42:10.019Z,-2.55
2018-02-25T08:43:10.037Z,-2.57
2018-02-25T08:44:10.127Z,-2.55
2018-02-25T08:45:10.104Z,-2.40
2018-02-25T08:46:10.097Z,-2.40
2018-02-25T08:47:10.113Z,-2.45
2018-02-25T08:48:10.121Z,-2.44
2018-02-25T08:49:10.125Z,-2.42
2018-02-25T08:50:10.179Z,-2.40
2018-02-25T08:51:10.166Z,-2.47
2018-02-25T08:52:10.190Z,-2.39
2018-02-25T08:53:10.188Z,-2.42
2018-02-25T08:54:10.765Z,-2.45
2018-02-25T08:55:10.224Z,-2.33
2018-02-25T08:56:10.380Z,-2.39
2018-02-25T08:57:10.258Z,-2.39
2018-02-25T08:58:10.286Z,-2.37
2018-02-25T08:59:10.286Z,-2.37
2018-02-25T09:00:10.307Z,-2.25
2018-02-25T09:01:10.316Z,-2.25
2018-02-25T09:02:10.342Z,-2.42
2018-02-25T09:03:10.355Z,-2.39
2018-02-25T09:04:10.369Z,-2.29
2018-02-25T09:05:10.378Z,-2.36
2018-02-25T09:06:10.402Z,-2.37
2018-02-25T09:07:10.409Z,-2.34
2018-02-25T09:08:10.434Z,-2.20
2018-02-25T09:09:10.493Z,-2.22
2018-02-25T09:10:10.485Z,-2.22
2018-02-25T09:11:10.542Z,-2.15
2018-02-25T09:12:10.532Z,-2.11
2018-02-25T09:13:10.511Z,-2.00
2018-02-25T09:14:10.556Z,-1.97
2018-02-25T09:15:10.621Z,-2.00
2018-02-25T09:16:10.587Z,-1.87
2018-02-25T09:17:10.585Z,-1.89
2018-02-25T09:18:10.628Z,-2.04
2018-02-25T09:19:10.603Z,-1.82
2018-02-25T09:20:10.644Z,-1.87
2018-02-25T09:21:10.659Z,-1.87
2018-02-25T09:22:10.673Z,-1.93
2018-02-25T09:23:10.668Z,-1.81
2018-02-25T09:24:10.720Z,-1.86
2018-02-25T09:25:10.728Z,-1.81
2018-02-25T09:26:10.726Z,-1.68
2018-02-25T09:27:10.744Z,-1.81
2018-02-25T09:28:10.762Z,-1.66
2018-02-25T09:29:10.767Z,-1.57
2018-02-25T09:30:10.840Z,-1.58
2018-02-25T09:31:10.795Z,-1.57
2018-02-25T09:32:10.867Z,-1.56
2018-02-25T09:33:10.837Z,-1.58
2018-02-25T09:34:10.855Z,-1.58
2018-02-25T09:35:10.867Z,-1.60
2018-02-25T09:36:10.883Z,-1.61
2018-02-25T09:37:10.908Z,-1.58
2018-02-25T09:38:10.911Z,-1.50
2018-02-25T09:39:10.935Z,-1.54
2018-02-25T09:40:10.949Z,-1.54
2018-02-25T09:41:10.970Z,-1.51
2018-02-25T09:42:10.995Z,-1.51
2018-02-25T09:43:10.997Z,-1.53
2018-02-25T09:44:11.016Z,-1.38
2018-02-25T09:45:11.084Z,-1.36
2018-02-25T09:46:11.041Z,-1.29
2018-02-25T09:47:11.084Z,-1.17
2018-02-25T09:48:11.083Z,-1.17
2018-02-25T09:49:11.094Z,-0.99
2018-02-25T09:50:11.119Z,-1.00
2018-02-25T09:51:11.132Z,-0.84
2018-02-25T09:52:11.144Z,-0.85
2018-02-25T09:53:11.187Z,-0.75
2018-02-25T09:54:11.200Z,-0.54
2018-02-25T09:55:11.241Z,-0.45
2018-02-25T09:56:11.225Z,-0.38
2018-02-25T09:57:11.255Z,-0.13
2018-02-25T09:58:11.263Z,-0.17
2018-02-25T09:59:11.273Z,0.00
2018-02-25T10:00:11.281Z,0.00
2018-02-25T10:01:11.306Z,0.26
2018-02-25T10:02:11.321Z,0.40
2018-02-25T10:03:11.339Z,0.51
2018-02-25T10:04:11.361Z,0.56
2018-02-25T10:05:11.380Z,0.45
2018-02-25T10:06:11.384Z,0.76
2018-02-25T10:07:11.407Z,0.82
2018-02-25T10:08:11.439Z,0.95
2018-02-25T10:09:11.447Z,1.25
2018-02-25T10:10:11.475Z,2.07
2018-02-25T10:11:11.489Z,2.62
2018-02-25T10:12:11.498Z,2.85
2018-02-25T10:13:11.512Z,2.82
2018-02-25T10:14:11.555Z,2.87
2018-02-25T10:15:11.551Z,2.83
2018-02-25T10:16:11.591Z,2.76
2018-02-25T10:17:11.598Z,2.73
2018-02-25T10:18:11.615Z,3.03
2018-02-25T10:19:11.652Z,3.18
2018-02-25T10:20:11.653Z,3.34
2018-02-25T10:21:11.675Z,3.81
2018-02-25T10:22:11.694Z,3.92
2018-02-25T10:23:11.719Z,4.21
2018-02-25T10:24:11.745Z,4.25
2018-02-25T10:25:11.758Z,4.24
2018-02-25T10:26:11.768Z,4.48
2018-02-25T10:27:11.801Z,5.01
2018-02-25T10:28:11.819Z,5.25
2018-02-25T10:29:11.835Z,5.58
2018-02-25T10:30:11.854Z,5.76
2018-02-25T10:31:11.911Z,6.70
2018-02-25T10:32:11.912Z,7.11
2018-02-25T10:33:13.946Z,7.81
2018-02-25T10:34:11.957Z,8.32
2018-02-25T10:35:11.972Z,8.69
2018-02-25T10:36:11.989Z,9.54
2018-02-25T10:37:12.052Z,10.03
2018-02-25T10:38:12.046Z,10.48
2018-02-25T10:39:12.084Z,11.25
2018-02-25T10:40:12.103Z,11.85
2018-02-25T10:41:12.128Z,11.88
2018-02-25T10:42:12.147Z,11.07
2018-02-25T10:43:12.181Z,10.90
2018-02-25T10:44:12.200Z,11.38
2018-02-25T10:45:12.222Z,11.97
2018-02-25T10:46:12.246Z,12.33
2018-02-25T10:47:12.285Z,11.59
2018-02-25T10:48:12.305Z,11.73
2018-02-25T10:49:12.345Z,11.73
2018-02-25T10:50:12.369Z,11.55
2018-02-25T10:51:12.381Z,10.65
2018-02-25T10:52:12.428Z,11.01
2018-02-25T10:53:12.446Z,11.23
2018-02-25T10:54:12.482Z,11.60
2018-02-25T10:55:12.519Z,11.97
2018-02-25T10:56:12.543Z,12.45
2018-02-25T10:57:12.558Z,12.54
2018-02-25T10:58:12.597Z,13.06
2018-02-25T10:59:12.623Z,13.17
2018-02-25T11:00:12.669Z,13.52
2018-02-25T11:01:12.679Z,13.55
2018-02-25T11:02:12.745Z,14.12
2018-02-25T11:03:12.745Z,14.07
2018-02-25T11:04:12.822Z,13.76
2018-02-25T11:05:12.806Z,13.62
2018-02-25T11:06:12.838Z,14.01
2018-02-25T11:07:12.867Z,14.19
2018-02-25T11:08:12.887Z,14.12
2018-02-25T11:09:12.918Z,14.25
2018-02-25T11:10:13.012Z,14.16
2018-02-25T11:11:12.999Z,14.23
2018-02-25T11:12:13.022Z,14.13
2018-02-25T11:13:13.057Z,14.40
2018-02-25T11:14:13.080Z,14.71
2018-02-25T11:15:13.107Z,14.85
2018-02-25T11:16:13.150Z,14.68
2018-02-25T11:17:13.176Z,14.67
2018-02-25T11:18:13.206Z,14.15
2018-02-25T11:19:13.239Z,14.15
2018-02-25T11:20:13.275Z,14.22
2018-02-25T11:21:13.327Z,13.85
2018-02-25T11:22:13.344Z,11.86
2018-02-25T11:23:13.368Z,12.20
2018-02-25T11:24:13.407Z,12.11
2018-02-25T11:25:13.435Z,12.25
2018-02-25T11:26:13.475Z,12.28
2018-02-25T11:27:13.497Z,12.39
2018-02-25T11:28:13.526Z,12.44
2018-02-25T11:29:13.564Z,12.26
2018-02-25T11:30:13.596Z,12.00
2018-02-25T11:31:13.677Z,11.65
2018-02-25T11:32:13.658Z,11.53
2018-02-25T11:33:13.681Z,10.94
2018-02-25T11:34:13.714Z,11.08
2018-02-25T11:35:13.759Z,10.57
2018-02-25T11:36:13.773Z,10.48
2018-02-25T11:37:13.800Z,9.99
2018-02-25T11:38:13.843Z,9.42
2018-02-25T11:39:13.868Z,9.02
2018-02-25T11:40:13.918Z,8.38
2018-02-25T11:41:13.930Z,8.21
2018-02-25T11:42:14.788Z,8.78
2018-02-25T11:43:13.986Z,8.86
2018-02-25T11:44:14.026Z,9.12
2018-02-25T11:45:14.039Z,9.63
2018-02-25T11:46:14.074Z,9.87
2018-02-25T11:47:14.118Z,10.43
2018-02-25T11:48:14.135Z,10.97
2018-02-25T11:49:14.170Z,10.80
2018-02-25T11:50:14.204Z,10.75
2018-02-25T11:51:14.342Z,10.65
2018-02-25T11:52:14.256Z,10.49
2018-02-25T11:53:14.293Z,9.66
2018-02-25T11:54:14.304Z,9.88
2018-02-25T11:55:14.376Z,10.10
2018-02-25T11:56:14.356Z,10.87
2018-02-25T11:57:14.388Z,11.08
2018-02-25T11:58:14.614Z,10.49
2018-02-25T11:59:14.450Z,10.36
2018-02-25T12:00:14.473Z,10.46
2018-02-25T12:01:14.528Z,10.53
2018-02-25T12:02:14.726Z,10.79
2018-02-25T12:03:14.550Z,11.10
2018-02-25T12:04:14.580Z,10.97
2018-02-25T12:05:14.654Z,11.33
2018-02-25T12:06:14.652Z,11.30
2018-02-25T12:07:14.669Z,11.97
2018-02-25T12:08:14.710Z,12.21
2018-02-25T12:09:14.730Z,12.63
2018-02-25T12:10:14.757Z,13.39
2018-02-25T12:11:14.817Z,14.05
2018-02-25T12:12:14.858Z,14.25
2018-02-25T12:13:14.870Z,13.65
2018-02-25T12:14:14.882Z,13.60
2018-02-25T12:15:14.924Z,13.82
2018-02-25T12:16:14.941Z,14.43
2018-02-25T12:17:15.000Z,14.71
2018-02-25T12:18:15.012Z,14.86
2018-02-25T12:19:15.034Z,15.02
2018-02-25T12:20:15.065Z,15.07
2018-02-25T12:21:15.090Z,15.43
2018-02-25T12:22:15.124Z,15.90
2018-02-25T12:23:15.177Z,15.76
2018-02-25T12:24:15.190Z,15.96
2018-02-25T12:25:15.226Z,16.12
2018-02-25T12:26:15.266Z,16.40
2018-02-25T12:27:15.314Z,16.55
2018-02-25T12:28:15.325Z,16.18
2018-02-25T12:29:15.352Z,15.99
2018-02-25T12:30:15.402Z,15.17
2018-02-25T12:31:15.411Z,14.30
2018-02-25T12:32:15.441Z,13.47
2018-02-25T12:33:15.524Z,12.26
2018-02-25T12:34:15.513Z,11.30
2018-02-25T12:35:15.546Z,10.15
2018-02-25T12:36:15.568Z,8.97
2018-02-25T12:37:15.588Z,8.42
2018-02-25T12:38:15.619Z,8.08
2018-02-25T12:39:15.670Z,7.69
2018-02-25T12:40:15.682Z,7.19
2018-02-25T12:41:15.740Z,6.68
2018-02-25T12:42:15.736Z,6.13
2018-02-25T12:43:15.765Z,5.94
2018-02-25T12:44:15.800Z,5.84
2018-02-25T12:45:15.826Z,5.73
2018-02-25T12:46:15.836Z,5.64
2018-02-25T12:47:15.870Z,5.46
2018-02-25T12:48:15.893Z,5.40
2018-02-25T12:49:15.925Z,5.16
2018-02-25T12:50:15.959Z,5.19
2018-02-25T12:51:15.964Z,5.07
2018-02-25T12:52:16.012Z,4.82
2018-02-25T12:53:16.017Z,4.83
2018-02-25T12:54:16.039Z,4.82
2018-02-25T12:55:16.081Z,4.53